Time;durP1;ratioP1;P1;durP2;ratioP2;P2;SDS_P1;SDS_P2;PMS_P1;PMS_P2;Temp;Humidity;BMP_temperature;BMP_pressure;BME280_temperature;BME280_humidity;BME280_pressure;Samples;Min_cycle;Max_cycle;Signal;HPM_P1;HPM_P2
2023/09/01 00:01:34;;;;;;;1.00;0.40;;;19.30;45.30;;;;;;5134559;27;20209;-50
2023/09/01 00:04:00;;;;;;;1.10;0.60;;;19.40;45.30;;;;;;5134539;27;20171;-54
2023/09/01 00:06:25;;;;;;;1.00;0.40;;;19.30;45.40;;;;;;5134390;27;20440;-53
2023/09/01 00:08:51;;;;;;;1.00;0.50;;;19.30;45.60;;;;;;5134411;27;20166;-52
2023/09/01 00:11:17;;;;;;;1.03;0.57;;;19.30;45.70;;;;;;5134508;27;20163;-52
2023/09/01 00:13:43;;;;;;;0.90;0.30;;;19.30;45.60;;;;;;5134541;27;20171;-55
2023/09/01 00:16:09;;;;;;;1.00;0.40;;;19.30;46.50;;;;;;5134194;27;20192;-52
2023/09/01 00:18:36;;;;;;;1.00;0.37;;;19.20;45.90;;;;;;5134300;27;20599;-50
2023/09/01 00:21:06;;;;;;;1.00;0.40;;;19.20;45.90;;;;;;5134182;27;20800;-56
2023/09/01 00:23:32;;;;;;;1.00;0.43;;;19.20;45.90;;;;;;5134130;27;20189;-51
2023/09/01 00:26:01;;;;;;;1.00;0.40;;;19.20;45.90;;;;;;5134219;27;20231;-50
2023/09/01 00:28:27;;;;;;;0.98;0.40;;;19.30;45.90;;;;;;5134154;27;20194;-54
2023/09/01 00:30:59;;;;;;;1.00;0.43;;;19.30;46.10;;;;;;5134101;27;20173;-51
2023/09/01 00:33:30;;;;;;;1.40;0.75;;;19.30;46.20;;;;;;5133956;27;20506;-53
2023/09/01 00:35:58;;;;;;;1.15;0.82;;;19.30;46.30;;;;;;5133615;27;20182;-50
2023/09/01 00:38:25;;;;;;;1.10;0.70;;;19.30;46.30;;;;;;5133812;27;20190;-51
2023/09/01 00:40:51;;;;;;;1.30;0.57;;;19.30;46.40;;;;;;5133930;27;20201;-54
2023/09/01 00:43:17;;;;;;;1.00;0.50;;;19.30;46.30;;;;;;5134060;27;20233;-52
2023/09/01 00:45:43;;;;;;;1.20;0.60;;;19.40;46.30;;;;;;5133585;27;20411;-52
2023/09/01 00:48:11;;;;;;;1.00;0.40;;;19.40;46.20;;;;;;5133975;27;20187;-51
2023/09/01 00:50:37;;;;;;;1.00;0.50;;;19.40;45.90;;;;;;5133584;27;20407;-51
2023/09/01 00:53:05;;;;;;;1.10;0.45;;;19.50;45.80;;;;;;5133613;27;20196;-53
2023/09/01 00:55:33;;;;;;;1.10;0.50;;;19.50;45.80;;;;;;5133426;27;20181;-55
2023/09/01 00:58:00;;;;;;;1.00;0.40;;;19.50;45.60;;;;;;5133483;27;20223;-51
2023/09/01 01:00:27;;;;;;;1.95;0.82;;;19.50;45.80;;;;;;5133494;27;20182;-52
2023/09/01 01:02:53;;;;;;;0.98;0.30;;;19.50;46.00;;;;;;5132827;27;20240;-52
2023/09/01 01:05:27;;;;;;;1.10;0.73;;;19.50;45.80;;;;;;5133127;27;20173;-50
2023/09/01 01:08:18;;;;;;;1.00;0.50;;;19.40;45.80;;;;;;5133270;27;20559;-50
2023/09/01 01:10:58;;;;;;;1.15;0.65;;;19.40;45.70;;;;;;5133389;27;20159;-52
2023/09/01 01:13:30;;;;;;;1.40;0.75;;;19.30;45.90;;;;;;5133210;27;20550;-54
2023/09/01 01:15:57;;;;;;;1.20;0.57;;;19.30;45.90;;;;;;5133278;27;20175;-52
2023/09/01 01:18:24;;;;;;;1.20;0.50;;;19.30;45.80;;;;;;5133172;27;20194;-52
2023/09/01 01:20:55;;;;;;;1.00;0.50;;;19.30;45.70;;;;;;5133481;27;20189;-53
2023/09/01 01:23:22;;;;;;;1.55;0.60;;;19.20;45.50;;;;;;5133292;27;20277;-51
2023/09/01 01:25:49;;;;;;;1.30;0.30;;;19.20;45.60;;;;;;5132919;27;20569;-51
2023/09/01 01:28:16;;;;;;;1.02;0.45;;;19.20;45.70;;;;;;5133011;27;20210;-52
2023/09/01 01:30:42;;;;;;;1.00;0.40;;;19.20;45.70;;;;;;5133122;27;20584;-53
2023/09/01 01:33:36;;;;;;;1.10;0.70;;;19.10;45.80;;;;;;5133122;27;20841;-51
2023/09/01 01:36:02;;;;;;;1.45;0.70;;;19.10;45.90;;;;;;5132709;27;20194;-51
2023/09/01 01:38:29;;;;;;;1.20;0.60;;;19.10;46.20;;;;;;5132800;27;20251;-51
2023/09/01 01:41:04;;;;;;;1.00;0.40;;;19.10;46.30;;;;;;5133213;27;20171;-56
2023/09/01 01:43:32;;;;;;;1.00;0.40;;;19.10;46.30;;;;;;5133145;27;20269;-51
2023/09/01 01:45:58;;;;;;;1.08;0.50;;;19.10;46.30;;;;;;5132698;28;20704;-50
2023/09/01 01:48:24;;;;;;;1.00;0.50;;;19.10;46.20;;;;;;5133156;27;20199;-54
2023/09/01 01:50:54;;;;;;;1.13;0.40;;;19.10;46.30;;;;;;5132795;27;20159;-54
2023/09/01 01:53:21;;;;;;;1.00;0.50;;;19.10;46.30;;;;;;5133069;28;20230;-51
2023/09/01 01:55:47;;;;;;;1.10;0.60;;;19.10;46.30;;;;;;5132593;27;20724;-53
2023/09/01 01:58:13;;;;;;;1.00;0.40;;;19.10;46.50;;;;;;5132720;27;20281;-54
2023/09/01 02:00:39;;;;;;;1.00;0.37;;;19.10;46.50;;;;;;5132763;28;20181;-52
2023/09/01 02:03:04;;;;;;;1.00;0.40;;;19.10;46.60;;;;;;5132759;27;20190;-51
2023/09/01 02:05:30;;;;;;;1.00;0.40;;;19.10;46.50;;;;;;5132421;28;20219;-56
2023/09/01 02:07:56;;;;;;;1.03;0.37;;;19.10;46.70;;;;;;5132713;28;20726;-54
2023/09/01 02:10:22;;;;;;;1.00;0.43;;;19.10;46.50;;;;;;5132697;28;20190;-52
2023/09/01 02:12:47;;;;;;;1.60;0.93;;;19.20;46.60;;;;;;5133018;27;20179;-53
2023/09/01 02:15:13;;;;;;;0.97;0.37;;;19.10;46.50;;;;;;5136693;27;20170;-54
2023/09/01 02:17:39;;;;;;;1.00;0.50;;;19.20;46.60;;;;;;5136703;27;20214;-52
2023/09/01 02:20:17;;;;;;;0.90;0.30;;;19.10;46.60;;;;;;5136542;27;20175;-51
2023/09/01 02:22:44;;;;;;;1.10;0.50;;;19.10;46.50;;;;;;5136571;27;20185;-53
2023/09/01 02:25:11;;;;;;;1.00;0.40;;;19.10;46.50;;;;;;5136403;27;20196;-51
2023/09/01 02:27:38;;;;;;;1.10;0.50;;;19.10;46.60;;;;;;5136530;27;20270;-54
2023/09/01 02:30:05;;;;;;;1.00;0.30;;;19.10;46.40;;;;;;5136639;27;20178;-52
2023/09/01 02:32:30;;;;;;;1.15;0.57;;;19.10;46.50;;;;;;5136188;27;20652;-50
2023/09/01 02:34:57;;;;;;;1.00;0.30;;;19.10;46.50;;;;;;5136031;27;20265;-52
2023/09/01 02:37:23;;;;;;;1.20;0.70;;;19.10;46.60;;;;;;5136309;27;20190;-53
2023/09/01 02:39:49;;;;;;;1.10;0.50;;;19.10;46.60;;;;;;5136246;27;20186;-51
2023/09/01 02:42:14;;;;;;;1.00;0.43;;;19.10;46.60;;;;;;5136178;27;20202;-52
2023/09/01 02:44:40;;;;;;;1.30;0.67;;;19.10;46.40;;;;;;5136032;27;20223;-52
2023/09/01 02:47:06;;;;;;;1.00;0.33;;;19.00;46.40;;;;;;5135941;27;20190;-54
2023/09/01 02:49:31;;;;;;;1.07;0.47;;;19.00;46.30;;;;;;5136067;27;20169;-50
2023/09/01 02:51:57;;;;;;;1.80;0.70;;;19.00;46.50;;;;;;5136198;27;20170;-52
2023/09/01 02:54:23;;;;;;;1.00;0.40;;;18.90;46.60;;;;;;5135902;27;20171;-53
2023/09/01 02:56:49;;;;;;;1.00;0.40;;;18.90;46.60;;;;;;5136097;27;20198;-49
2023/09/01 02:59:14;;;;;;;1.00;0.47;;;18.90;46.50;;;;;;5135959;27;20706;-51
2023/09/01 03:01:40;;;;;;;3.87;0.93;;;18.90;46.60;;;;;;5135824;27;20194;-53
2023/09/01 03:04:07;;;;;;;1.00;0.37;;;18.90;46.80;;;;;;5135752;27;20175;-50
2023/09/01 03:06:35;;;;;;;1.00;0.43;;;18.90;46.70;;;;;;5135767;27;20221;-55
2023/09/01 03:09:02;;;;;;;1.00;0.40;;;18.90;46.70;;;;;;5135966;27;20175;-55
2023/09/01 03:11:28;;;;;;;1.15;0.60;;;18.90;46.90;;;;;;5135740;27;20643;-51
2023/09/01 03:13:54;;;;;;;1.10;0.60;;;18.80;46.70;;;;;;5136017;27;20182;-50
2023/09/01 03:16:19;;;;;;;1.10;0.60;;;18.80;46.80;;;;;;5135265;27;20318;-53
2023/09/01 03:18:45;;;;;;;1.93;0.90;;;18.80;46.50;;;;;;5135743;27;20167;-52
2023/09/01 03:21:12;;;;;;;0.90;0.30;;;18.70;46.70;;;;;;5135490;27;20179;-51
2023/09/01 03:23:39;;;;;;;1.00;0.43;;;18.70;46.70;;;;;;5135463;27;20163;-51
2023/09/01 03:26:07;;;;;;;1.40;0.60;;;18.70;46.60;;;;;;5134207;27;20269;-54
2023/09/01 03:28:33;;;;;;;1.00;0.40;;;18.60;46.80;;;;;;5135640;27;20171;-52
2023/09/01 03:30:59;;;;;;;1.10;0.60;;;18.60;46.80;;;;;;5135261;27;20190;-53
2023/09/01 03:33:25;;;;;;;1.10;0.67;;;18.60;46.50;;;;;;5135255;27;20427;-53
2023/09/01 03:35:50;;;;;;;1.00;0.45;;;18.60;46.80;;;;;;5135016;27;20264;-49
2023/09/01 03:38:17;;;;;;;1.10;0.53;;;18.60;46.90;;;;;;5135133;27;20593;-55
2023/09/01 03:40:42;;;;;;;1.00;0.50;;;18.50;46.90;;;;;;5135127;27;20167;-50
2023/09/01 03:43:08;;;;;;;1.03;0.40;;;18.50;47.10;;;;;;5135041;27;20210;-52
2023/09/01 03:45:34;;;;;;;1.07;0.60;;;18.50;47.00;;;;;;5134724;27;20166;-53
2023/09/01 03:48:00;;;;;;;1.10;0.57;;;18.50;46.90;;;;;;5134908;27;20461;-52
2023/09/01 03:50:26;;;;;;;1.03;0.53;;;18.50;47.90;;;;;;5134987;27;20400;-50
2023/09/01 03:52:52;;;;;;;1.30;0.70;;;18.50;47.00;;;;;;5134970;27;20408;-52
2023/09/01 03:55:17;;;;;;;1.10;0.50;;;18.50;46.80;;;;;;5134630;27;20241;-53
2023/09/01 03:57:44;;;;;;;1.20;0.47;;;18.50;46.80;;;;;;5134726;27;20190;-53
2023/09/01 04:00:11;;;;;;;1.35;0.65;;;18.50;46.90;;;;;;5134612;27;20167;-56
2023/09/01 04:02:37;;;;;;;1.10;0.57;;;18.50;46.90;;;;;;5134976;27;20233;-51
2023/09/01 04:05:04;;;;;;;1.10;0.57;;;18.40;46.80;;;;;;5134471;27;20162;-53
2023/09/01 04:07:29;;;;;;;1.08;0.60;;;18.30;46.70;;;;;;5134558;27;20420;-54
2023/09/01 04:09:58;;;;;;;1.13;0.60;;;18.30;46.90;;;;;;5134603;27;20186;-54
2023/09/01 04:12:24;;;;;;;1.00;0.40;;;18.30;46.90;;;;;;5134427;27;20451;-51
2023/09/01 04:14:49;;;;;;;1.45;0.85;;;18.30;46.90;;;;;;5134244;27;20249;-57
2023/09/01 04:17:15;;;;;;;0.97;0.43;;;18.30;46.90;;;;;;5134283;27;20274;-50
2023/09/01 04:19:41;;;;;;;1.20;0.70;;;18.30;47.00;;;;;;5134499;27;20185;-52
2023/09/01 04:22:07;;;;;;;1.30;0.60;;;18.20;46.90;;;;;;5134217;27;20204;-55
2023/09/01 04:24:32;;;;;;;1.10;0.50;;;18.20;47.00;;;;;;5134317;27;20285;-52
2023/09/01 04:26:58;;;;;;;1.10;0.50;;;18.20;47.00;;;;;;5134139;27;20274;-51
2023/09/01 04:29:24;;;;;;;1.10;0.63;;;18.20;47.10;;;;;;5134079;27;20162;-54
2023/09/01 04:31:49;;;;;;;1.00;0.50;;;18.30;47.20;;;;;;5134102;27;20247;-52
2023/09/01 04:34:16;;;;;;;1.10;0.53;;;18.30;47.30;;;;;;5134008;27;20177;-51
2023/09/01 04:36:42;;;;;;;1.20;0.60;;;17.40;46.70;;;;;;5134281;27;20217;-56
2023/09/01 04:39:09;;;;;;;1.30;0.50;;;18.20;47.20;;;;;;5133989;27;20240;-51
2023/09/01 04:41:35;;;;;;;1.10;0.80;;;18.20;47.00;;;;;;5133733;27;20196;-55
2023/09/01 04:44:01;;;;;;;1.10;0.60;;;18.20;47.20;;;;;;5133900;27;20167;-54
2023/09/01 04:46:26;;;;;;;1.03;0.40;;;18.20;47.20;;;;;;5133729;27;20663;-50
2023/09/01 04:48:53;;;;;;;2.80;1.80;;;18.20;47.20;;;;;;5133841;27;20632;-52
2023/09/01 04:51:18;;;;;;;1.00;0.40;;;18.10;47.50;;;;;;5133758;27;20166;-55
2023/09/01 04:53:44;;;;;;;1.10;0.63;;;18.10;47.60;;;;;;5133807;27;20583;-51
2023/09/01 04:56:10;;;;;;;1.00;0.30;;;18.20;47.50;;;;;;5133400;27;20684;-52
2023/09/01 04:58:35;;;;;;;1.30;0.70;;;18.20;47.70;;;;;;5133610;27;20502;-56
2023/09/01 05:01:01;;;;;;;1.03;0.57;;;18.20;47.70;;;;;;5133521;27;20165;-56
2023/09/01 05:03:27;;;;;;;1.00;0.40;;;18.20;47.60;;;;;;5133435;27;20194;-53
2023/09/01 05:05:53;;;;;;;1.03;0.60;;;18.30;47.80;;;;;;5133258;27;20178;-57
2023/09/01 05:08:18;;;;;;;1.00;0.40;;;18.30;47.90;;;;;;5133370;27;20191;-57
2023/09/01 05:10:44;;;;;;;1.10;0.50;;;18.30;47.90;;;;;;5133370;27;20194;-50
2023/09/01 05:13:10;;;;;;;1.20;0.70;;;18.30;47.90;;;;;;5133381;27;20211;-55
2023/09/01 05:15:36;;;;;;;1.10;0.40;;;18.40;47.80;;;;;;5133060;27;20173;-52
2023/09/01 05:18:02;;;;;;;1.10;0.70;;;18.40;47.80;;;;;;5133425;27;20816;-52
2023/09/01 05:20:28;;;;;;;1.00;0.40;;;18.40;47.80;;;;;;5133416;27;20220;-58
2023/09/01 05:22:53;;;;;;;1.07;0.50;;;18.50;48.00;;;;;;5133524;27;20872;-52
2023/09/01 05:25:19;;;;;;;1.20;0.63;;;18.50;47.80;;;;;;5133036;27;20396;-52
2023/09/01 05:27:46;;;;;;;1.00;0.50;;;18.50;47.80;;;;;;5133151;27;20191;-53
2023/09/01 05:30:13;;;;;;;1.10;0.60;;;18.60;47.80;;;;;;5133318;27;20250;-58
2023/09/01 05:32:39;;;;;;;1.20;0.45;;;18.60;47.70;;;;;;5133371;27;20178;-51
2023/09/01 05:35:05;;;;;;;1.00;0.40;;;18.60;47.70;;;;;;5132760;27;20209;-52
2023/09/01 05:37:31;;;;;;;1.00;0.35;;;18.60;47.50;;;;;;5132935;27;20261;-58
2023/09/01 05:39:57;;;;;;;1.30;0.67;;;18.70;47.80;;;;;;5132965;27;20704;-53
2023/09/01 05:42:23;;;;;;;1.00;0.50;;;18.70;48.00;;;;;;5133237;27;20556;-55
2023/09/01 05:44:49;;;;;;;1.20;0.80;;;18.60;48.10;;;;;;5132914;27;20404;-53
2023/09/01 05:47:14;;;;;;;1.10;0.60;;;18.70;48.30;;;;;;5133312;27;20270;-52
2023/09/01 05:49:40;;;;;;;1.00;0.40;;;18.80;48.20;;;;;;5139473;27;20404;-53
2023/09/01 05:52:06;;;;;;;1.37;0.70;;;18.80;48.10;;;;;;5139782;27;20173;-55
2023/09/01 05:54:32;;;;;;;1.07;0.50;;;18.90;48.30;;;;;;5139571;27;20174;-51
2023/09/01 05:56:58;;;;;;;1.30;0.87;;;18.90;48.40;;;;;;5139620;27;20218;-52
2023/09/01 05:59:23;;;;;;;1.00;0.50;;;19.00;48.40;;;;;;5139635;27;20453;-57
2023/09/01 06:01:49;;;;;;;2.00;0.70;;;19.00;48.20;;;;;;5139975;27;20206;-51
2023/09/01 06:04:15;;;;;;;1.57;0.73;;;19.10;48.20;;;;;;5139378;27;20496;-51
2023/09/01 06:06:41;;;;;;;1.00;0.50;;;19.20;48.00;;;;;;5139724;27;20272;-53
2023/09/01 06:09:10;;;;;;;2.75;0.60;;;19.30;47.90;;;;;;5139581;27;20171;-53
2023/09/01 06:11:39;;;;;;;1.20;0.70;;;19.40;47.70;;;;;;5139920;27;20206;-59
2023/09/01 06:14:05;;;;;;;1.10;0.70;;;19.50;47.40;;;;;;5139580;27;20265;-50
2023/09/01 06:16:31;;;;;;;1.15;0.68;;;19.60;47.70;;;;;;5138135;27;20228;-51
2023/09/01 06:19:03;;;;;;;1.10;0.50;;;19.80;47.70;;;;;;5139891;27;20182;-53
2023/09/01 06:21:28;;;;;;;1.00;0.38;;;19.90;47.50;;;;;;5139589;27;20521;-58
2023/09/01 06:23:54;;;;;;;1.13;0.63;;;20.00;47.40;;;;;;5139498;27;20174;-51
2023/09/01 06:26:20;;;;;;;1.10;0.70;;;20.20;47.10;;;;;;5139419;27;20166;-52
2023/09/01 06:28:47;;;;;;;1.03;0.50;;;20.30;47.30;;;;;;5139399;27;20167;-57
2023/09/01 06:31:14;;;;;;;1.00;0.40;;;20.40;47.00;;;;;;5139475;27;20516;-53
2023/09/01 06:33:42;;;;;;;1.15;0.70;;;20.50;47.10;;;;;;5139368;27;20179;-50
2023/09/01 06:36:09;;;;;;;1.00;0.40;;;20.60;46.90;;;;;;5138902;27;20195;-55
2023/09/01 06:38:35;;;;;;;1.00;0.40;;;20.70;46.50;;;;;;5139321;27;20643;-58
2023/09/01 06:41:03;;;;;;;1.10;0.50;;;20.80;46.30;;;;;;5139336;27;20411;-51
2023/09/01 06:43:30;;;;;;;2.40;0.90;;;20.80;46.30;;;;;;5139234;27;20514;-52
2023/09/01 06:45:57;;;;;;;1.38;0.95;;;20.90;46.40;;;;;;5139332;27;20181;-53
2023/09/01 06:48:23;;;;;;;1.10;0.67;;;21.00;46.30;;;;;;5139174;27;20201;-56
2023/09/01 06:50:49;;;;;;;1.50;0.80;;;21.10;46.40;;;;;;5139109;27;20483;-53
2023/09/01 06:53:14;;;;;;;1.03;0.50;;;21.10;45.80;;;;;;5139171;27;20631;-54
2023/09/01 06:55:40;;;;;;;1.10;0.50;;;21.20;46.10;;;;;;5138958;27;20170;-52
2023/09/01 06:58:06;;;;;;;1.10;0.53;;;21.30;45.80;;;;;;5139085;27;20189;-50
2023/09/01 07:00:32;;;;;;;1.10;0.40;;;21.30;45.20;;;;;;5135439;27;20162;-54
2023/09/01 07:02:58;;;;;;;1.10;0.40;;;21.40;45.20;;;;;;5135779;27;20486;-57
2023/09/01 07:05:24;;;;;;;4.10;2.23;;;21.40;44.90;;;;;;5135445;27;20400;-53
2023/09/01 07:07:50;;;;;;;1.40;0.73;;;21.40;45.10;;;;;;5135754;27;20476;-51
2023/09/01 07:10:16;;;;;;;2.07;1.23;;;21.40;45.10;;;;;;5135680;27;20178;-53
2023/09/01 07:12:43;;;;;;;1.20;0.70;;;21.50;44.70;;;;;;5135897;27;20405;-57
2023/09/01 07:15:09;;;;;;;2.13;0.53;;;21.50;44.80;;;;;;5135451;27;20878;-52
2023/09/01 07:17:35;;;;;;;1.63;1.00;;;21.60;44.80;;;;;;5135522;27;20435;-54
2023/09/01 07:20:03;;;;;;;1.13;0.63;;;21.70;44.90;;;;;;5135411;27;20404;-52
2023/09/01 07:22:28;;;;;;;1.20;0.60;;;21.80;45.10;;;;;;5134115;27;21156;-53
2023/09/01 07:24:54;;;;;;;1.10;0.63;;;21.90;44.70;;;;;;5135276;27;20474;-51
2023/09/01 07:27:20;;;;;;;1.30;0.70;;;22.00;44.40;;;;;;5135332;27;20269;-54
2023/09/01 07:29:48;;;;;;;1.10;0.60;;;22.10;44.50;;;;;;5135492;27;20163;-56
2023/09/01 07:32:15;;;;;;;1.10;0.60;;;22.20;44.50;;;;;;5135308;27;20171;-52
2023/09/01 07:34:41;;;;;;;1.00;0.50;;;22.20;44.60;;;;;;5134873;27;20423;-55
2023/09/01 07:37:07;;;;;;;1.47;0.63;;;22.40;44.60;;;;;;5135411;27;20813;-51
2023/09/01 07:39:34;;;;;;;1.60;0.93;;;22.50;44.70;;;;;;5135341;27;20414;-51
2023/09/01 07:41:59;;;;;;;1.20;0.70;;;22.50;44.40;;;;;;5135173;27;20452;-56
2023/09/01 07:44:25;;;;;;;1.10;0.60;;;22.70;44.40;;;;;;5134872;27;20485;-54
2023/09/01 07:46:51;;;;;;;1.97;0.70;;;22.80;44.40;;;;;;5134998;27;20887;-50
2023/09/01 07:49:17;;;;;;;1.10;0.50;;;22.90;44.60;;;;;;5135419;27;20170;-54
2023/09/01 07:51:43;;;;;;;1.47;1.00;;;22.90;42.80;;;;;;5135176;27;20177;-54
2023/09/01 07:54:09;;;;;;;1.20;0.50;;;22.90;43.40;;;;;;5134721;27;20189;-52
2023/09/01 07:56:34;;;;;;;1.33;0.93;;;22.90;43.80;;;;;;5134793;27;20949;-52
2023/09/01 07:59:01;;;;;;;1.60;0.73;;;23.00;44.00;;;;;;5134786;27;20406;-56
2023/09/01 08:01:28;;;;;;;1.07;0.53;;;23.10;43.90;;;;;;5134718;27;20169;-52
2023/09/01 08:03:54;;;;;;;1.40;0.97;;;23.20;43.80;;;;;;5134562;27;20404;-51
2023/09/01 08:06:20;;;;;;;2.50;1.03;;;23.30;43.20;;;;;;5133125;27;20830;-57
2023/09/01 08:08:45;;;;;;;1.10;0.60;;;23.20;41.60;;;;;;5134687;27;20541;-51
2023/09/01 08:11:11;;;;;;;1.10;0.57;;;23.30;42.80;;;;;;5134277;27;20198;-53
2023/09/01 08:13:37;;;;;;;1.23;0.80;;;23.30;43.00;;;;;;5134532;27;20532;-54
2023/09/01 08:16:03;;;;;;;1.20;0.80;;;23.40;42.90;;;;;;5134233;27;20536;-51
2023/09/01 08:18:28;;;;;;;1.30;0.60;;;23.40;42.30;;;;;;5134262;27;20193;-52
2023/09/01 08:20:54;;;;;;;1.63;1.40;;;23.40;41.60;;;;;;5134578;27;20178;-56
2023/09/01 08:23:21;;;;;;;1.40;0.70;;;23.40;42.80;;;;;;5134562;27;20198;-52
2023/09/01 08:25:48;;;;;;;1.20;0.80;;;23.50;42.80;;;;;;5134255;27;20246;-55
2023/09/01 08:28:14;;;;;;;1.37;0.93;;;23.60;42.80;;;;;;5134141;27;20424;-53
2023/09/01 08:30:39;;;;;;;1.67;0.60;;;23.70;42.60;;;;;;5134148;27;20400;-51
2023/09/01 08:33:05;;;;;;;1.20;0.50;;;23.80;43.10;;;;;;5134087;27;20698;-58
2023/09/01 08:35:31;;;;;;;1.10;0.53;;;23.80;42.50;;;;;;5133862;27;20213;-52
2023/09/01 08:37:57;;;;;;;1.30;0.50;;;23.90;42.90;;;;;;5134094;27;20221;-56
2023/09/01 08:40:23;;;;;;;1.30;0.60;;;23.90;41.90;;;;;;5133961;27;20973;-51
2023/09/01 08:42:50;;;;;;;1.10;0.50;;;23.90;40.10;;;;;;5133871;27;20225;-57
2023/09/01 08:45:17;;;;;;;2.77;1.00;;;24.00;41.50;;;;;;5133977;27;20393;-56
2023/09/01 08:47:53;;;;;;;1.50;0.93;;;24.00;41.40;;;;;;5134003;27;20428;-52
2023/09/01 08:50:21;;;;;;;1.10;0.50;;;24.10;42.00;;;;;;5133960;27;20395;-51
2023/09/01 08:52:48;;;;;;;1.10;0.40;;;24.20;42.10;;;;;;5134006;27;20401;-57
2023/09/01 08:55:14;;;;;;;1.40;0.73;;;24.30;42.20;;;;;;5133715;27;20442;-57
2023/09/01 08:57:40;;;;;;;1.10;0.40;;;24.30;40.90;;;;;;5133615;27;20457;-50
2023/09/01 09:00:08;;;;;;;1.83;0.80;;;24.40;40.50;;;;;;5133452;27;20424;-55
2023/09/01 09:02:41;;;;;;;1.20;0.60;;;24.40;40.80;;;;;;5133597;27;20459;-51
2023/09/01 09:05:11;;;;;;;1.57;1.10;;;24.40;40.10;;;;;;5133351;27;20757;-51
2023/09/01 09:07:37;;;;;;;1.00;0.50;;;24.50;38.80;;;;;;5133391;27;20412;-56
2023/09/01 09:10:06;;;;;;;1.30;0.60;;;24.50;37.50;;;;;;5133565;27;20411;-54
2023/09/01 09:12:41;;;;;;;1.20;0.67;;;24.50;39.00;;;;;;5133540;27;20469;-50
2023/09/01 09:15:08;;;;;;;1.10;0.60;;;24.60;38.60;;;;;;5133458;27;20407;-57
2023/09/01 09:17:48;;;;;;;1.20;0.53;;;24.60;37.50;;;;;;5133196;27;20459;-48
2023/09/01 09:20:18;;;;;;;1.47;0.73;;;24.70;37.20;;;;;;5133205;27;20473;-58
2023/09/01 09:22:56;;;;;;;1.10;0.50;;;24.70;37.90;;;;;;5132524;27;20500;-50
2023/09/01 09:25:29;;;;;;;1.00;0.40;;;24.60;37.80;;;;;;5133264;27;20399;-54
2023/09/01 09:27:59;;;;;;;1.00;0.40;;;24.60;37.50;;;;;;5133338;27;20443;-51
2023/09/01 09:30:28;;;;;;;1.20;0.70;;;24.60;34.70;;;;;;5133366;27;20777;-51
2023/09/01 09:33:04;;;;;;;1.33;0.70;;;24.60;36.50;;;;;;5133168;27;20410;-55
2023/09/01 09:35:30;;;;;;;1.10;0.60;;;24.70;37.50;;;;;;5132718;27;20564;-50
2023/09/01 09:37:58;;;;;;;2.03;0.90;;;24.90;37.70;;;;;;5133212;27;20489;-55
2023/09/01 09:40:24;;;;;;;1.10;0.50;;;25.00;37.10;;;;;;5132955;27;20404;-51
2023/09/01 09:42:49;;;;;;;1.13;0.70;;;25.00;37.00;;;;;;5132881;27;20817;-54
2023/09/01 09:45:28;;;;;;;1.10;0.60;;;25.00;37.50;;;;;;5132667;27;20224;-56
2023/09/01 09:47:57;;;;;;;1.20;0.77;;;25.00;37.90;;;;;;5133114;27;20427;-52
2023/09/01 09:50:26;;;;;;;1.10;0.40;;;25.00;38.30;;;;;;5132903;27;20852;-57
2023/09/01 09:53:13;;;;;;;1.20;0.67;;;25.10;37.60;;;;;;5133112;27;20404;-52
2023/09/01 09:55:45;;;;;;;2.90;2.50;;;25.10;37.00;;;;;;5132963;27;20521;-53
2023/09/01 09:58:11;;;;;;;1.10;0.50;;;25.00;37.00;;;;;;5132895;27;21002;-56
2023/09/01 10:00:55;;;;;;;1.80;0.77;;;24.90;36.50;;;;;;5132779;27;20401;-51
2023/09/01 10:03:25;;;;;;;1.30;0.63;;;24.80;36.10;;;;;;5132816;27;20436;-54
2023/09/01 10:05:51;;;;;;;1.10;0.50;;;24.70;37.20;;;;;;5132780;27;20405;-51
2023/09/01 10:08:20;;;;;;;1.00;0.40;;;24.70;36.70;;;;;;5132660;27;20501;-52
2023/09/01 10:10:46;;;;;;;1.13;0.50;;;24.70;37.20;;;;;;5132566;28;20793;-56
2023/09/01 10:13:12;;;;;;;1.10;0.60;;;24.70;37.50;;;;;;5132686;27;20408;-52
2023/09/01 10:15:39;;;;;;;1.40;0.83;;;24.80;38.10;;;;;;5132414;27;20392;-56
2023/09/01 10:18:10;;;;;;;2.50;0.60;;;24.80;38.10;;;;;;5132700;27;20422;-56
2023/09/01 10:20:39;;;;;;;1.20;0.60;;;24.80;37.80;;;;;;5132659;27;20438;-53
2023/09/01 10:23:06;;;;;;;1.20;0.70;;;24.80;37.60;;;;;;5132551;27;20458;-56
2023/09/01 10:25:34;;;;;;;1.10;0.40;;;24.90;37.90;;;;;;5132253;27;20404;-53
2023/09/01 10:28:10;;;;;;;1.10;0.60;;;24.90;37.90;;;;;;5132600;27;20420;-51
2023/09/01 10:30:38;;;;;;;1.20;0.53;;;24.90;37.40;;;;;;5132738;27;20416;-55
2023/09/01 10:33:15;;;;;;;3.23;0.70;;;25.00;37.80;;;;;;5132552;27;20396;-51
2023/09/01 10:35:46;;;;;;;1.10;0.57;;;25.10;37.30;;;;;;5135688;27;20431;-55
2023/09/01 10:38:23;;;;;;;1.00;0.40;;;25.20;36.50;;;;;;5136294;27;20946;-53
2023/09/01 10:40:53;;;;;;;1.30;0.50;;;25.30;37.30;;;;;;5136391;27;20491;-52
2023/09/01 10:43:44;;;;;;;1.73;0.90;;;25.50;37.30;;;;;;5136166;27;20451;-51
2023/09/01 10:46:16;;;;;;;1.17;0.57;;;25.50;36.20;;;;;;5135863;27;20388;-55
2023/09/01 10:48:48;;;;;;;1.00;0.40;;;25.60;36.70;;;;;;5136178;27;20461;-52
2023/09/01 10:51:16;;;;;;;2.33;0.50;;;25.80;37.50;;;;;;5136167;27;20408;-54
2023/09/01 10:53:42;;;;;;;1.20;0.70;;;25.70;36.00;;;;;;5136058;27;20400;-57
2023/09/01 10:56:10;;;;;;;1.10;0.50;;;25.70;36.00;;;;;;5135784;27;20404;-52
2023/09/01 10:58:46;;;;;;;1.10;0.53;;;25.70;36.00;;;;;;5135978;27;20281;-52
2023/09/01 11:01:34;;;;;;;1.10;0.40;;;25.70;36.90;;;;;;5136151;27;20503;-51
2023/09/01 11:04:20;;;;;;;1.00;0.30;;;25.70;37.20;;;;;;5135902;27;20428;-57
2023/09/01 11:06:59;;;;;;;1.00;0.43;;;25.60;36.70;;;;;;5131733;27;20439;-52
2023/09/01 11:09:34;;;;;;;1.00;0.47;;;25.50;37.30;;;;;;5136020;27;20495;-51
2023/09/01 11:12:00;;;;;;;1.00;0.40;;;25.50;37.20;;;;;;5135710;27;20407;-53
2023/09/01 11:14:26;;;;;;;1.10;0.43;;;25.50;36.30;;;;;;5135625;27;20403;-58
2023/09/01 11:16:51;;;;;;;1.73;0.60;;;25.50;37.40;;;;;;5135575;27;20420;-51
2023/09/01 11:19:17;;;;;;;1.00;0.40;;;25.50;37.40;;;;;;5135529;27;20674;-55
2023/09/01 11:21:43;;;;;;;1.67;0.97;;;25.60;36.80;;;;;;5135380;27;20170;-55
2023/09/01 11:24:08;;;;;;;3.00;1.23;;;25.60;37.10;;;;;;5135586;27;20537;-51
2023/09/01 11:26:38;;;;;;;1.00;0.40;;;25.50;36.30;;;;;;5135749;27;20682;-51
2023/09/01 11:29:14;;;;;;;1.10;0.50;;;25.50;35.40;;;;;;5134171;27;20170;-53
2023/09/01 11:31:40;;;;;;;2.33;0.80;;;25.50;36.80;;;;;;5135637;27;20749;-52
2023/09/01 11:34:06;;;;;;;1.27;0.50;;;25.50;36.90;;;;;;5135082;27;20449;-52
2023/09/01 11:36:33;;;;;;;2.03;0.67;;;25.50;36.70;;;;;;5135063;27;20789;-56
2023/09/01 11:38:59;;;;;;;1.30;0.40;;;25.50;35.80;;;;;;5135337;27;20885;-52
2023/09/01 11:41:26;;;;;;;1.07;0.40;;;25.50;36.60;;;;;;5135229;27;21002;-50
2023/09/01 11:43:56;;;;;;;1.40;0.70;;;25.50;37.30;;;;;;5135125;27;20921;-52
2023/09/01 11:46:32;;;;;;;1.53;0.60;;;25.50;37.30;;;;;;5134127;27;20392;-52
2023/09/01 11:48:58;;;;;;;1.10;0.67;;;25.60;37.40;;;;;;5134966;27;20429;-52
2023/09/01 11:51:31;;;;;;;1.10;0.40;;;25.70;37.70;;;;;;5135179;27;20407;-55
2023/09/01 11:53:57;;;;;;;2.80;0.90;;;25.70;37.00;;;;;;5135058;27;20400;-50
2023/09/01 11:56:24;;;;;;;1.47;0.57;;;25.80;37.20;;;;;;5134715;27;20423;-58
2023/09/01 11:58:52;;;;;;;1.00;0.37;;;25.80;36.70;;;;;;5135243;27;20400;-56
2023/09/01 12:01:19;;;;;;;1.10;0.43;;;25.90;37.10;;;;;;5134930;27;20488;-52
2023/09/01 12:03:46;;;;;;;1.00;0.40;;;25.90;37.40;;;;;;5134898;27;20454;-55
2023/09/01 12:06:23;;;;;;;1.10;0.50;;;25.90;36.50;;;;;;5134501;27;20408;-51
2023/09/01 12:08:51;;;;;;;1.20;0.60;;;25.90;35.90;;;;;;5135145;27;20391;-52
2023/09/01 12:11:17;;;;;;;1.00;0.40;;;25.80;36.30;;;;;;5134643;27;20429;-56
2023/09/01 12:13:43;;;;;;;1.00;0.30;;;25.80;36.10;;;;;;5134938;27;20555;-53
2023/09/01 12:16:20;;;;;;;1.00;0.33;;;25.80;36.70;;;;;;5134152;27;20412;-51
2023/09/01 12:18:45;;;;;;;1.10;0.47;;;25.80;36.30;;;;;;5134752;27;20422;-57
2023/09/01 12:21:11;;;;;;;1.17;0.40;;;25.70;36.00;;;;;;5134567;27;20898;-58
2023/09/01 12:23:42;;;;;;;1.30;0.50;;;25.70;36.50;;;;;;5134335;27;20697;-51
2023/09/01 12:26:08;;;;;;;1.00;0.40;;;25.70;37.20;;;;;;5134272;27;20216;-53
2023/09/01 12:28:36;;;;;;;1.00;0.40;;;25.80;36.70;;;;;;5134553;27;20430;-58
2023/09/01 12:31:03;;;;;;;1.07;0.50;;;25.80;37.30;;;;;;5134122;27;20400;-50
2023/09/01 12:33:29;;;;;;;1.00;0.30;;;25.80;37.10;;;;;;5134160;27;20412;-52
2023/09/01 12:35:55;;;;;;;1.00;0.40;;;25.80;37.20;;;;;;5133696;27;20423;-54
2023/09/01 12:38:21;;;;;;;1.20;0.57;;;25.90;36.90;;;;;;5133982;27;20194;-53
2023/09/01 12:40:47;;;;;;;1.00;0.40;;;25.90;37.00;;;;;;5133915;27;20412;-51
2023/09/01 12:43:13;;;;;;;1.10;0.50;;;25.90;36.50;;;;;;5134153;27;20870;-56
2023/09/01 12:45:39;;;;;;;1.10;0.43;;;25.90;37.10;;;;;;5133711;27;20958;-57
2023/09/01 12:48:05;;;;;;;1.10;0.47;;;26.00;37.60;;;;;;5133906;27;20431;-51
2023/09/01 12:50:31;;;;;;;1.67;1.33;;;26.00;37.40;;;;;;5133880;27;20549;-51